createdAt,value
2019-01-19T00:02:42.878Z,3.00
2019-01-19T00:05:57.125Z,3.00
2019-01-19T00:09:17.695Z,3.00
2019-01-19T00:12:38.943Z,3.00
2019-01-19T00:15:36.986Z,3.00
2019-01-19T00:19:20.178Z,3.00
2019-01-19T00:22:26.621Z,3.00
2019-01-19T00:25:52.183Z,3.00
2019-01-19T00:28:49.908Z,2.90
2019-01-19T00:31:49.935Z,2.90
2019-01-19T00:35:06.871Z,2.90
2019-01-19T00:38:29.298Z,2.90
2019-01-19T00:42:02.708Z,2.90
2019-01-19T00:45:43.536Z,2.90
2019-01-19T00:49:09.274Z,2.90
2019-01-19T00:52:44.061Z,2.80
2019-01-19T00:56:06.557Z,2.80
2019-01-19T00:59:02.379Z,2.80
2019-01-19T01:02:25.211Z,2.80
2019-01-19T01:05:28.983Z,2.80
2019-01-19T01:08:33.279Z,2.80
2019-01-19T01:12:01.668Z,2.80
2019-01-19T01:15:27.217Z,2.70
2019-01-19T01:18:59.085Z,2.70
2019-01-19T01:22:10.350Z,2.70
2019-01-19T01:25:25.621Z,2.70
2019-01-19T01:28:46.166Z,2.70
2019-01-19T01:32:18.221Z,2.70
2019-01-19T01:36:02.528Z,2.70
2019-01-19T01:39:41.672Z,2.70
2019-01-19T01:42:52.225Z,2.70
2019-01-19T01:46:07.509Z,2.70
2019-01-19T01:49:18.800Z,2.80
2019-01-19T01:52:42.946Z,2.70
2019-01-19T01:55:46.147Z,2.70
2019-01-19T01:59:05.037Z,2.70
2019-01-19T02:02:31.724Z,2.70
2019-01-19T02:05:58.044Z,2.70
2019-01-19T02:08:53.771Z,2.70
2019-01-19T02:12:21.240Z,2.70
2019-01-19T02:15:51.746Z,2.70
2019-01-19T02:19:27.887Z,2.70
2019-01-19T02:22:53.209Z,2.60
2019-01-19T02:26:13.628Z,2.50
2019-01-19T02:29:48.665Z,2.60
2019-01-19T02:33:03.253Z,2.50
2019-01-19T02:36:19.884Z,2.60
2019-01-19T02:39:49.846Z,2.60
2019-01-19T02:43:03.002Z,2.50
2019-01-19T02:46:40.820Z,2.60
2019-01-19T02:49:58.358Z,2.50
2019-01-19T02:53:04.712Z,2.60
2019-01-19T02:56:53.012Z,2.60
2019-01-19T02:59:53.212Z,2.50
2019-01-19T03:03:23.975Z,2.50
2019-01-19T03:06:24.412Z,2.50
2019-01-19T03:09:34.303Z,2.50
2019-01-19T03:12:49.307Z,2.40
2019-01-19T03:15:52.257Z,2.40
2019-01-19T03:19:20.160Z,2.40
2019-01-19T03:22:27.052Z,2.40
2019-01-19T03:25:41.485Z,2.40
2019-01-19T03:28:45.415Z,2.30
2019-01-19T03:32:01.181Z,2.30
2019-01-19T03:35:20.101Z,2.30
2019-01-19T03:39:03.185Z,2.30
2019-01-19T03:42:25.870Z,2.40
2019-01-19T03:46:01.199Z,2.50
2019-01-19T03:49:37.966Z,2.50
2019-01-19T03:52:45.868Z,2.50
2019-01-19T03:55:58.261Z,2.50
2019-01-19T03:59:12.299Z,2.40
2019-01-19T04:02:39.316Z,2.40
2019-01-19T04:06:15.153Z,2.40
2019-01-19T04:10:03.141Z,2.30
2019-01-19T04:13:32.541Z,2.30
2019-01-19T04:16:47.813Z,2.30
2019-01-19T04:20:20.908Z,2.30
2019-01-19T04:23:10.022Z,2.30
2019-01-19T04:26:10.347Z,2.20
2019-01-19T04:28:59.733Z,2.30
2019-01-19T04:31:48.681Z,2.30
2019-01-19T04:34:37.728Z,2.30
2019-01-19T04:37:26.725Z,2.30
2019-01-19T04:40:15.148Z,2.30
2019-01-19T04:43:03.674Z,2.30
2019-01-19T04:45:52.975Z,2.30
2019-01-19T04:48:42.437Z,2.30
2019-01-19T04:51:31.494Z,2.40
2019-01-19T04:54:20.590Z,2.30
2019-01-19T04:57:09.708Z,2.30
2019-01-19T04:59:58.413Z,2.30
2019-01-19T05:02:47.339Z,2.30
2019-01-19T05:05:36.884Z,2.40
2019-01-19T05:08:26.312Z,2.30
2019-01-19T05:11:14.853Z,2.30
2019-01-19T05:14:04.814Z,2.30
2019-01-19T05:16:53.243Z,2.30
2019-01-19T05:19:42.364Z,2.30
2019-01-19T05:22:32.247Z,2.30
2019-01-19T05:25:21.748Z,2.30
2019-01-19T05:28:10.882Z,2.30
2019-01-19T05:31:00.236Z,2.30
2019-01-19T05:33:49.307Z,2.30
2019-01-19T05:36:38.712Z,2.30
2019-01-19T05:39:28.313Z,2.30
2019-01-19T05:42:17.533Z,2.30
2019-01-19T05:45:07.973Z,2.20
2019-01-19T05:47:57.471Z,2.20
2019-01-19T05:50:46.333Z,2.20
2019-01-19T05:53:35.637Z,2.20
2019-01-19T05:56:24.933Z,2.20
2019-01-19T05:59:14.366Z,2.20
2019-01-19T06:02:03.598Z,2.30
2019-01-19T06:04:52.571Z,2.30
2019-01-19T06:07:41.662Z,2.30
2019-01-19T06:10:31.054Z,2.20
2019-01-19T06:13:20.406Z,2.20
2019-01-19T06:16:09.346Z,2.30
2019-01-19T06:18:58.564Z,2.20
2019-01-19T06:21:58.426Z,2.20
2019-01-19T06:24:47.283Z,2.20
2019-01-19T06:27:36.559Z,2.20
2019-01-19T06:30:25.360Z,2.10
2019-01-19T06:33:14.885Z,2.10
2019-01-19T06:36:04.178Z,2.10
2019-01-19T06:38:53.181Z,2.10
2019-01-19T06:41:41.810Z,2.00
2019-01-19T06:44:31.317Z,2.00
2019-01-19T06:47:20.395Z,2.00
2019-01-19T06:50:11.392Z,2.00
2019-01-19T06:52:59.992Z,2.00
2019-01-19T06:55:49.201Z,2.00
2019-01-19T06:58:37.895Z,2.00
2019-01-19T07:01:26.905Z,2.10
2019-01-19T07:04:16.442Z,2.10
2019-01-19T07:07:05.633Z,2.10
2019-01-19T07:09:54.434Z,2.10
2019-01-19T07:12:43.226Z,2.10
2019-01-19T07:15:33.450Z,2.00
2019-01-19T07:18:22.025Z,2.00
2019-01-19T07:21:10.958Z,1.90
2019-01-19T07:24:00.126Z,2.00
2019-01-19T07:26:48.902Z,1.90
2019-01-19T07:29:38.135Z,1.90
2019-01-19T07:32:27.456Z,2.00
2019-01-19T07:35:16.680Z,2.00
2019-01-19T07:38:05.731Z,2.00
2019-01-19T07:40:54.879Z,2.10
2019-01-19T07:43:43.259Z,2.10
2019-01-19T07:46:33.257Z,2.10
2019-01-19T07:49:21.955Z,2.00
2019-01-19T07:52:11.602Z,2.10
2019-01-19T07:55:00.990Z,2.10
2019-01-19T07:57:49.954Z,2.20
2019-01-19T08:00:39.854Z,2.10
2019-01-19T08:03:28.991Z,2.20
2019-01-19T08:06:17.598Z,2.20
2019-01-19T08:09:08.528Z,2.10
2019-01-19T08:11:57.359Z,2.20
2019-01-19T08:14:46.225Z,2.20
2019-01-19T08:17:35.740Z,2.10
2019-01-19T08:20:25.142Z,2.20
2019-01-19T08:23:13.813Z,2.20
2019-01-19T08:26:03.109Z,2.10
2019-01-19T08:28:52.246Z,2.20
2019-01-19T08:31:41.490Z,2.20
2019-01-19T08:34:30.446Z,2.20
2019-01-19T08:37:24.416Z,2.20
2019-01-19T08:40:13.173Z,2.30
2019-01-19T08:43:14.059Z,2.30
2019-01-19T08:46:02.901Z,2.30
2019-01-19T08:48:52.150Z,2.30
2019-01-19T08:51:41.451Z,2.30
2019-01-19T08:54:30.429Z,2.30
2019-01-19T08:57:19.571Z,2.30
2019-01-19T09:00:12.249Z,2.30
2019-01-19T09:03:01.471Z,2.30
2019-01-19T09:05:50.634Z,2.30
2019-01-19T09:08:39.815Z,2.30
2019-01-19T09:11:29.380Z,2.30
2019-01-19T09:14:18.438Z,2.30
2019-01-19T09:17:07.719Z,2.40
2019-01-19T09:19:56.950Z,2.40
2019-01-19T09:22:48.327Z,2.40
2019-01-19T09:25:37.962Z,2.40
2019-01-19T09:28:27.357Z,2.50
2019-01-19T09:31:16.602Z,2.50
2019-01-19T09:34:06.309Z,2.50
2019-01-19T09:36:55.778Z,2.50
2019-01-19T09:39:44.910Z,2.50
2019-01-19T09:42:33.985Z,2.60
2019-01-19T09:45:23.350Z,2.60
2019-01-19T09:48:12.399Z,2.60
2019-01-19T09:51:02.179Z,2.70
2019-01-19T09:53:51.231Z,2.70
2019-01-19T09:56:40.940Z,2.70
2019-01-19T09:59:29.757Z,2.70
2019-01-19T10:02:18.828Z,2.60
2019-01-19T10:05:11.611Z,2.60
2019-01-19T10:08:00.801Z,2.60
2019-01-19T10:10:49.816Z,2.70
2019-01-19T10:13:40.020Z,2.80
2019-01-19T10:16:28.786Z,2.80
2019-01-19T10:19:18.022Z,2.80
2019-01-19T10:22:07.189Z,2.90
2019-01-19T10:24:57.103Z,2.90
2019-01-19T10:27:45.968Z,2.90
2019-01-19T10:30:35.790Z,2.90
2019-01-19T10:33:25.319Z,3.00
2019-01-19T10:36:14.635Z,3.00
2019-01-19T10:39:04.988Z,3.00
2019-01-19T10:41:54.177Z,3.00
2019-01-19T10:44:43.822Z,3.10
2019-01-19T10:47:33.034Z,3.20
2019-01-19T10:50:22.657Z,3.20
2019-01-19T10:53:13.377Z,3.30
2019-01-19T10:56:02.998Z,3.30
2019-01-19T10:58:51.714Z,3.30
2019-01-19T11:01:40.813Z,3.30
2019-01-19T11:04:29.906Z,3.40
2019-01-19T11:07:19.356Z,3.40
2019-01-19T11:10:11.501Z,3.40
2019-01-19T11:13:00.900Z,3.40
2019-01-19T11:15:50.398Z,3.50
2019-01-19T11:18:39.451Z,3.50
2019-01-19T11:21:28.397Z,3.60
2019-01-19T11:24:17.660Z,3.70
2019-01-19T11:27:06.723Z,3.70
2019-01-19T11:29:55.753Z,3.80
2019-01-19T11:32:44.817Z,3.80
2019-01-19T11:35:34.104Z,3.90
2019-01-19T11:38:22.667Z,3.90
2019-01-19T11:41:11.786Z,3.90
2019-01-19T11:44:00.952Z,4.00
2019-01-19T11:46:50.362Z,4.00
2019-01-19T11:49:39.870Z,4.10
2019-01-19T11:52:29.276Z,4.20
2019-01-19T11:55:21.032Z,4.20
2019-01-19T11:58:09.951Z,4.20
2019-01-19T12:00:59.016Z,4.30
2019-01-19T12:03:48.548Z,4.30
2019-01-19T12:06:37.732Z,4.40
2019-01-19T12:09:26.491Z,4.40
2019-01-19T12:12:15.297Z,4.40
2019-01-19T12:15:04.462Z,4.40
2019-01-19T12:17:53.898Z,4.40
2019-01-19T12:20:45.839Z,4.50
2019-01-19T12:23:35.109Z,4.50
2019-01-19T12:26:24.261Z,4.60
2019-01-19T12:29:13.191Z,4.70
2019-01-19T12:32:02.457Z,4.70
2019-01-19T12:34:51.851Z,4.70
2019-01-19T12:37:40.474Z,4.70
2019-01-19T12:40:29.267Z,4.70
2019-01-19T12:43:23.200Z,4.70
2019-01-19T12:46:12.863Z,4.70
2019-01-19T12:49:01.500Z,4.80
2019-01-19T12:51:50.668Z,4.80
2019-01-19T12:54:39.629Z,4.80
2019-01-19T12:57:28.949Z,4.80
2019-01-19T13:00:20.721Z,4.70
2019-01-19T13:03:10.122Z,4.70
2019-01-19T13:06:34.965Z,4.80
2019-01-19T13:09:42.569Z,4.80
2019-01-19T13:12:45.793Z,4.80
2019-01-19T13:16:35.237Z,4.90
2019-01-19T13:19:48.498Z,4.90
2019-01-19T13:23:15.907Z,4.90
2019-01-19T13:26:36.591Z,4.80
2019-01-19T13:30:15.445Z,4.90
2019-01-19T13:33:51.550Z,4.90
2019-01-19T13:37:14.461Z,4.80
2019-01-19T13:40:39.297Z,4.80
2019-01-19T13:44:05.196Z,4.80
2019-01-19T13:47:26.709Z,4.80
2019-01-19T13:50:49.297Z,4.80
2019-01-19T13:54:14.211Z,4.80
2019-01-19T13:58:09.084Z,4.80
2019-01-19T14:02:01.484Z,4.80
2019-01-19T14:05:34.704Z,4.80
2019-01-19T14:09:08.089Z,4.80
2019-01-19T14:12:05.900Z,4.70
2019-01-19T14:15:23.184Z,4.70
2019-01-19T14:18:45.149Z,4.80
2019-01-19T14:22:20.156Z,4.80
2019-01-19T14:25:48.099Z,4.80
2019-01-19T14:29:22.705Z,4.80
2019-01-19T14:32:51.953Z,4.80
2019-01-19T14:36:27.124Z,4.80
2019-01-19T14:39:47.998Z,4.80
2019-01-19T14:42:59.919Z,4.80
2019-01-19T14:46:22.304Z,4.80
2019-01-19T14:49:49.508Z,4.80
2019-01-19T14:53:22.278Z,4.70
2019-01-19T14:56:39.705Z,4.70
2019-01-19T15:00:07.125Z,4.70
2019-01-19T15:03:05.094Z,4.70
2019-01-19T15:06:17.946Z,4.70
2019-01-19T15:09:29.679Z,4.70
2019-01-19T15:12:54.685Z,4.60
2019-01-19T15:16:27.977Z,4.60
2019-01-19T15:19:38.917Z,4.50
2019-01-19T15:23:07.534Z,4.50
2019-01-19T15:26:27.997Z,4.50
2019-01-19T15:29:51.299Z,4.60
2019-01-19T15:33:32.960Z,4.60
2019-01-19T15:37:31.927Z,4.60
2019-01-19T15:40:46.233Z,4.60
2019-01-19T15:44:08.191Z,4.50
2019-01-19T15:47:21.509Z,4.50
2019-01-19T15:50:36.227Z,4.40
2019-01-19T15:53:55.780Z,4.40
2019-01-19T15:56:55.260Z,4.40
2019-01-19T15:59:56.482Z,4.30
2019-01-19T16:03:07.653Z,4.30
2019-01-19T16:06:50.122Z,4.30
2019-01-19T16:10:20.440Z,4.30
2019-01-19T16:13:56.244Z,4.30
2019-01-19T16:17:07.239Z,4.20
2019-01-19T16:20:26.745Z,4.20
2019-01-19T16:24:00.442Z,4.20
2019-01-19T16:27:36.182Z,4.20
2019-01-19T16:30:55.329Z,4.20
2019-01-19T16:34:00.554Z,4.10
2019-01-19T16:37:27.841Z,4.10
2019-01-19T16:40:45.812Z,4.10
2019-01-19T16:44:12.972Z,4.20
2019-01-19T16:47:43.448Z,4.10
2019-01-19T16:51:19.168Z,4.10
2019-01-19T16:54:39.110Z,4.00
2019-01-19T16:58:11.778Z,3.90
2019-01-19T17:01:44.983Z,3.90
2019-01-19T17:05:12.126Z,3.90
2019-01-19T17:08:38.796Z,3.80
2019-01-19T17:12:06.442Z,3.80
2019-01-19T17:15:33.590Z,3.70
2019-01-19T17:18:59.605Z,3.70
2019-01-19T17:22:26.758Z,3.70
2019-01-19T17:25:51.333Z,3.70
2019-01-19T17:29:33.968Z,3.60
2019-01-19T17:33:06.768Z,3.60
2019-01-19T17:36:24.172Z,3.60
2019-01-19T17:40:12.608Z,3.60
2019-01-19T17:43:25.924Z,3.60
2019-01-19T17:46:24.365Z,3.50
2019-01-19T17:49:49.597Z,3.50
2019-01-19T17:52:59.571Z,3.50
2019-01-19T17:56:22.284Z,3.40
2019-01-19T18:00:05.265Z,3.40
2019-01-19T18:03:37.157Z,3.50
2019-01-19T18:07:04.058Z,3.50
2019-01-19T18:10:50.054Z,3.60
2019-01-19T18:14:29.179Z,3.60
2019-01-19T18:17:52.927Z,3.50
2019-01-19T18:21:23.029Z,3.50
2019-01-19T18:24:55.528Z,3.40
2019-01-19T18:28:11.370Z,3.40
2019-01-19T18:31:31.489Z,3.50
2019-01-19T18:34:57.602Z,3.50
2019-01-19T18:38:14.458Z,3.50
2019-01-19T18:41:31.376Z,3.50
2019-01-19T18:45:14.031Z,3.50
2019-01-19T18:48:13.779Z,3.50
2019-01-19T18:51:30.877Z,3.30
2019-01-19T18:55:02.889Z,3.30
2019-01-19T18:58:21.822Z,3.30
2019-01-19T19:01:34.491Z,3.40
2019-01-19T19:04:55.426Z,3.30
2019-01-19T19:08:16.734Z,3.30
2019-01-19T19:11:35.252Z,3.30
2019-01-19T19:15:14.849Z,3.20
2019-01-19T19:18:40.140Z,3.20
2019-01-19T19:21:59.317Z,3.30
2019-01-19T19:25:31.817Z,3.30
2019-01-19T19:28:53.701Z,3.20
2019-01-19T19:32:25.875Z,3.20
2019-01-19T19:35:51.542Z,3.10
2019-01-19T19:39:17.470Z,3.10
2019-01-19T19:42:46.482Z,3.10
2019-01-19T19:46:16.854Z,3.10
2019-01-19T19:49:31.177Z,3.10
2019-01-19T19:52:27.759Z,3.10
2019-01-19T19:55:09.889Z,3.10
2019-01-19T19:57:59.390Z,3.10
2019-01-19T20:00:48.802Z,3.10
2019-01-19T20:03:37.683Z,3.00
2019-01-19T20:06:27.020Z,3.00
2019-01-19T20:09:17.098Z,3.10
2019-01-19T20:12:08.275Z,3.00
2019-01-19T20:14:57.723Z,3.00
2019-01-19T20:17:46.718Z,3.00
2019-01-19T20:20:35.568Z,3.00
2019-01-19T20:23:24.606Z,2.90
2019-01-19T20:26:12.914Z,2.90
2019-01-19T20:29:01.764Z,2.90
2019-01-19T20:31:51.155Z,2.80
2019-01-19T20:34:40.277Z,2.70
2019-01-19T20:37:29.142Z,2.70
2019-01-19T20:40:24.359Z,2.70
2019-01-19T20:43:08.805Z,2.60
2019-01-19T20:45:58.044Z,2.60
2019-01-19T20:48:47.462Z,2.70
2019-01-19T20:51:36.755Z,2.70
2019-01-19T20:54:26.582Z,2.70
2019-01-19T20:57:15.200Z,2.70
2019-01-19T21:00:08.298Z,2.80
2019-01-19T21:02:57.838Z,2.80
2019-01-19T21:05:47.059Z,2.80
2019-01-19T21:08:36.317Z,2.80
2019-01-19T21:11:26.009Z,2.80
2019-01-19T21:14:14.842Z,2.80
2019-01-19T21:17:04.147Z,2.80
2019-01-19T21:19:53.359Z,2.80
2019-01-19T21:22:42.516Z,2.80
2019-01-19T21:25:31.882Z,2.80
2019-01-19T21:28:21.388Z,2.80
2019-01-19T21:31:10.672Z,2.80
2019-01-19T21:33:59.625Z,2.80
2019-01-19T21:36:48.577Z,2.80
2019-01-19T21:39:38.060Z,2.70
2019-01-19T21:42:27.761Z,2.70
2019-01-19T21:45:19.018Z,2.70
2019-01-19T21:48:08.373Z,2.80
2019-01-19T21:50:57.917Z,2.80
2019-01-19T21:53:46.757Z,2.80
2019-01-19T21:56:36.244Z,2.80
2019-01-19T21:59:25.631Z,2.80
2019-01-19T22:02:14.781Z,2.80
2019-01-19T22:05:04.994Z,2.90
2019-01-19T22:07:53.965Z,2.90
2019-01-19T22:10:46.408Z,2.80
2019-01-19T22:13:33.919Z,2.80
2019-01-19T22:16:23.270Z,2.80
2019-01-19T22:19:12.708Z,2.70
2019-01-19T22:22:01.600Z,2.60
2019-01-19T22:24:50.777Z,2.60
2019-01-19T22:27:42.698Z,2.60
2019-01-19T22:30:31.770Z,2.60
2019-01-19T22:33:21.093Z,2.60
2019-01-19T22:36:09.955Z,2.60
2019-01-19T22:38:58.890Z,2.60
2019-01-19T22:41:48.312Z,2.60
2019-01-19T22:44:37.690Z,2.70
2019-01-19T22:47:26.566Z,2.70
2019-01-19T22:50:16.622Z,2.70
2019-01-19T22:53:05.865Z,2.60
2019-01-19T22:55:54.928Z,2.60
2019-01-19T22:58:44.195Z,2.60
2019-01-19T23:01:56.338Z,2.60
2019-01-19T23:04:45.812Z,2.60
2019-01-19T23:07:34.844Z,2.50
2019-01-19T23:10:24.104Z,2.50
2019-01-19T23:13:13.183Z,2.50
2019-01-19T23:16:02.164Z,2.50
2019-01-19T23:18:50.467Z,2.40
2019-01-19T23:21:39.353Z,2.40
2019-01-19T23:24:29.081Z,2.40
2019-01-19T23:27:17.878Z,2.30
2019-01-19T23:30:08.873Z,2.30
2019-01-19T23:32:58.416Z,2.30
2019-01-19T23:35:47.997Z,2.30
2019-01-19T23:38:37.141Z,2.30
2019-01-19T23:41:26.680Z,2.30
2019-01-19T23:44:16.087Z,2.30
2019-01-19T23:47:05.146Z,2.30
2019-01-19T23:49:54.120Z,2.20
2019-01-19T23:52:42.990Z,2.20
2019-01-19T23:55:32.339Z,2.20
2019-01-19T23:58:21.507Z,2.10
